Time;durP1;ratioP1;P1;durP2;ratioP2;P2;SDS_P1;SDS_P2;PMS_P1;PMS_P2;Temp;Humidity;BMP_temperature;BMP_pressure;BME280_temperature;BME280_humidity;BME280_pressure;Samples;Min_cycle;Max_cycle;Signal;HPM_P1;HPM_P2
2021/12/23 05:32:34;;;;;;;22.42;10.05;;;-8.10;99.90;;;;;;5060011;27;2140536;-93
2021/12/23 05:35:00;;;;;;;32.05;14.32;;;-8.30;99.90;;;;;;5097390;28;20418;-94
2021/12/23 05:37:26;;;;;;;24.05;11.18;;;;;;;;;;5095327;28;20063;-96
2021/12/23 05:39:52;;;;;;;23.65;12.43;;;-8.50;99.90;;;;;;5098165;28;20110;-95
2021/12/23 05:42:18;;;;;;;20.20;10.52;;;-8.30;99.90;;;;;;5081762;28;20078;-95
2021/12/23 05:44:44;;;;;;;19.73;10.15;;;-8.20;99.90;;;;;;5098215;28;20031;-94
2021/12/23 05:47:10;;;;;;;22.00;10.90;;;-8.30;99.90;;;;;;5098838;28;20118;-93
2021/12/23 05:49:50;;;;;;;20.88;10.27;;;-8.30;99.90;;;;;;5108279;28;20032;-95
2021/12/23 05:52:16;;;;;;;;;;;-8.30;99.90;;;;;;5098255;28;20039;-93
2021/12/23 05:54:42;;;;;;;19.27;9.90;;;-8.30;99.90;;;;;;5098425;28;19904;-96
2021/12/23 05:57:08;;;;;;;23.60;11.65;;;-8.30;99.90;;;;;;5083009;28;20032;-93
2021/12/23 06:02:14;;;;;;;21.10;10.55;;;-8.30;99.90;;;;;;5144289;22;20108;-96
2021/12/23 06:04:40;;;;;;;17.67;10.43;;;-8.40;99.90;;;;;;5035657;28;20025;-93
2021/12/23 06:07:06;;;;;;;21.90;11.23;;;-8.40;99.90;;;;;;5034151;28;20025;-92
2021/12/23 06:09:32;;;;;;;22.15;9.80;;;-8.30;99.90;;;;;;5033594;28;20025;-92
2021/12/23 06:11:58;;;;;;;24.05;11.63;;;-8.10;99.90;;;;;;5033559;28;20034;-91
2021/12/23 06:14:24;;;;;;;24.45;11.23;;;-8.00;99.90;;;;;;5033188;28;20029;-92
2021/12/23 06:16:50;;;;;;;23.02;11.55;;;-7.80;99.90;;;;;;5033669;28;20022;-91
2021/12/23 06:19:16;;;;;;;24.85;12.48;;;-7.80;99.90;;;;;;5033848;28;20028;-95
2021/12/23 06:21:41;;;;;;;19.40;9.93;;;-7.80;99.90;;;;;;5034058;28;20036;-94
2021/12/23 06:24:07;;;;;;;20.48;10.60;;;-7.70;99.90;;;;;;5033321;28;20029;-93
2021/12/23 06:26:33;;;;;;;26.67;12.30;;;-7.60;99.90;;;;;;5033811;28;20031;-94
2021/12/23 06:28:59;;;;;;;26.95;12.90;;;-7.70;99.90;;;;;;5034331;28;20463;-93
2021/12/23 06:31:25;;;;;;;64.63;27.60;;;-7.60;99.90;;;;;;5032976;28;20036;-94
2021/12/23 06:33:51;;;;;;;24.58;11.70;;;-7.50;99.90;;;;;;5033146;28;20029;-94
2021/12/23 06:36:17;;;;;;;22.10;10.25;;;-7.50;99.90;;;;;;5033214;28;20025;-93
2021/12/23 06:38:44;;;;;;;23.98;11.40;;;-7.30;99.90;;;;;;5033344;28;20021;-93
2021/12/23 06:41:11;;;;;;;24.30;11.27;;;-7.30;99.90;;;;;;5033540;28;20171;-94
2021/12/23 06:43:37;;;;;;;22.95;10.98;;;-7.40;99.90;;;;;;5022094;28;20075;-94
2021/12/23 06:46:04;;;;;;;21.52;10.30;;;-7.50;99.90;;;;;;5020667;28;20029;-92
2021/12/23 06:48:33;;;;;;;22.67;11.02;;;-7.40;99.90;;;;;;5020622;28;20025;-93
2021/12/23 06:51:00;;;;;;;24.08;12.07;;;-7.30;99.90;;;;;;5020112;28;20045;-94
2021/12/23 06:53:26;;;;;;;27.65;14.05;;;-7.40;99.90;;;;;;5020727;28;20045;-93
2021/12/23 06:55:52;;;;;;;26.58;13.13;;;-7.30;99.90;;;;;;5019882;28;20384;-94
2021/12/23 06:58:19;;;;;;;22.25;12.68;;;-7.10;99.90;;;;;;5019890;28;20017;-94
2021/12/23 07:00:46;;;;;;;22.05;11.88;;;-7.30;99.90;;;;;;5019791;28;20041;-94
2021/12/23 07:03:12;;;;;;;28.42;12.68;;;-7.40;99.90;;;;;;5019697;28;20053;-94
2021/12/23 07:05:38;;;;;;;23.73;11.85;;;-7.30;99.90;;;;;;5020056;28;20025;-94
2021/12/23 07:08:12;;;;;;;28.38;13.77;;;-7.20;99.90;;;;;;5019479;28;20116;-94
2021/12/23 07:10:39;;;;;;;42.35;20.80;;;-7.10;99.90;;;;;;5019446;28;20033;-93
2021/12/23 07:13:05;;;;;;;31.98;14.98;;;-7.10;99.90;;;;;;5019343;28;20025;-93
2021/12/23 07:15:33;;;;;;;19.55;10.35;;;-7.20;99.90;;;;;;5020141;28;20025;-94
2021/12/23 07:18:00;;;;;;;35.47;16.05;;;-7.20;99.90;;;;;;5019402;28;20027;-94
2021/12/23 07:20:27;;;;;;;18.13;10.00;;;-7.20;99.90;;;;;;5020808;28;20026;-94
2021/12/23 07:22:54;;;;;;;20.50;9.98;;;-7.60;99.90;;;;;;5019390;28;20116;-94
2021/12/23 07:25:20;;;;;;;29.52;13.23;;;-7.60;99.90;;;;;;5019180;28;20091;-94
2021/12/23 07:27:45;;;;;;;26.45;13.73;;;-7.60;99.90;;;;;;5019177;28;20026;-94
2021/12/23 07:30:15;;;;;;;32.28;18.73;;;-7.30;99.90;;;;;;5019866;28;20469;-94
2021/12/23 07:32:42;;;;;;;60.38;30.85;;;-7.20;99.90;;;;;;5020293;28;20017;-93
2021/12/23 07:35:08;;;;;;;34.13;17.85;;;-7.30;99.90;;;;;;5020067;28;20056;-94
2021/12/23 07:37:36;;;;;;;29.75;15.38;;;-7.20;99.90;;;;;;5019551;28;20021;-94
2021/12/23 07:40:03;;;;;;;21.83;11.55;;;-7.30;99.90;;;;;;5019528;28;20047;-94
2021/12/23 07:42:31;;;;;;;28.08;13.95;;;-7.30;99.90;;;;;;5019095;28;20045;-93
2021/12/23 07:44:57;;;;;;;25.08;12.48;;;-7.20;99.90;;;;;;5019108;28;20029;-94
2021/12/23 07:47:23;;;;;;;24.35;11.80;;;-7.20;99.90;;;;;;5019527;28;20176;-92
2021/12/23 07:49:49;;;;;;;28.20;13.60;;;-7.20;99.90;;;;;;5020960;28;20053;-94
2021/12/23 07:52:15;;;;;;;26.63;11.95;;;-7.20;99.90;;;;;;5020947;28;20035;-93
2021/12/23 07:54:41;;;;;;;18.33;11.00;;;-7.40;99.90;;;;;;5019770;28;20022;-93
2021/12/23 07:57:06;;;;;;;19.65;11.23;;;-7.50;99.90;;;;;;5019100;28;20021;-95
2021/12/23 07:59:33;;;;;;;21.48;10.77;;;-7.70;99.90;;;;;;5019329;28;20022;-94
2021/12/23 08:01:58;;;;;;;19.63;12.90;;;-7.50;99.90;;;;;;5019776;28;20394;-93
2021/12/23 08:04:25;;;;;;;21.23;13.15;;;-7.40;99.90;;;;;;5020420;28;20037;-94
2021/12/23 08:06:55;;;;;;;26.90;12.05;;;-7.50;99.90;;;;;;5020284;28;20021;-94
2021/12/23 08:09:22;;;;;;;17.30;10.93;;;-7.30;99.90;;;;;;5019006;28;20030;-95
2021/12/23 08:11:48;;;;;;;19.70;10.80;;;-7.10;99.90;;;;;;5018495;28;20025;-94
2021/12/23 08:14:14;;;;;;;33.70;18.98;;;-7.10;99.90;;;;;;5018874;28;20025;-94
2021/12/23 08:16:40;;;;;;;15.93;8.95;;;-7.10;99.90;;;;;;5018898;28;20024;-95
2021/12/23 08:19:06;;;;;;;18.08;10.50;;;-7.40;99.90;;;;;;5019084;28;20384;-94
2021/12/23 08:21:32;;;;;;;29.70;16.67;;;-7.50;99.90;;;;;;5018561;28;20080;-93
2021/12/23 08:23:57;;;;;;;22.33;11.38;;;-7.30;99.90;;;;;;5022258;28;20116;-95
2021/12/23 08:26:28;;;;;;;26.38;13.95;;;-7.30;99.90;;;;;;5019073;28;20053;-94
2021/12/23 08:28:56;;;;;;;21.65;11.43;;;-7.30;99.90;;;;;;5019103;28;20076;-94
2021/12/23 08:31:24;;;;;;;16.08;9.13;;;-7.60;99.90;;;;;;5018626;28;20029;-93
2021/12/23 08:33:50;;;;;;;24.27;11.90;;;-7.80;99.90;;;;;;5018434;28;20022;-94
2021/12/23 08:36:17;;;;;;;22.98;10.73;;;-7.60;99.90;;;;;;5018279;28;20032;-94
2021/12/23 08:38:43;;;;;;;21.40;11.82;;;-7.40;99.90;;;;;;5018377;28;20024;-93
2021/12/23 08:41:09;;;;;;;20.70;11.05;;;-7.60;99.90;;;;;;5017606;28;20037;-94
2021/12/23 08:43:35;;;;;;;20.83;11.48;;;-7.80;99.90;;;;;;5018657;28;20025;-94
2021/12/23 08:46:02;;;;;;;26.38;12.35;;;-8.00;99.90;;;;;;5020946;28;20030;-94
2021/12/23 08:48:28;;;;;;;21.15;11.40;;;-8.00;99.90;;;;;;5018521;28;20047;-95
2021/12/23 08:50:55;;;;;;;23.08;11.52;;;-7.90;99.90;;;;;;5018654;28;20541;-94
2021/12/23 08:53:20;;;;;;;20.75;11.20;;;-7.90;99.90;;;;;;5018379;28;20108;-94
2021/12/23 08:55:47;;;;;;;17.95;10.73;;;-7.80;99.90;;;;;;5018164;28;20056;-94
2021/12/23 08:58:12;;;;;;;27.52;14.45;;;-7.80;99.90;;;;;;5018079;28;20018;-95
2021/12/23 09:00:40;;;;;;;19.88;10.15;;;-7.70;99.90;;;;;;5017992;28;20033;-95
2021/12/23 09:03:07;;;;;;;16.60;10.57;;;-7.50;99.90;;;;;;5017381;28;20056;-93
2021/12/23 09:05:39;;;;;;;20.05;10.90;;;-7.70;99.90;;;;;;5018302;28;20112;-92
2021/12/23 09:08:05;;;;;;;41.15;20.45;;;-7.50;99.90;;;;;;5020915;28;20032;-93
2021/12/23 09:10:31;;;;;;;16.40;9.93;;;-7.50;99.90;;;;;;5020883;28;20022;-95
2021/12/23 09:12:58;;;;;;;18.23;10.40;;;-7.40;99.90;;;;;;5019597;28;20018;-93
2021/12/23 09:15:24;;;;;;;18.73;11.57;;;-7.50;99.90;;;;;;5018196;28;20029;-94
2021/12/23 09:17:50;;;;;;;21.45;11.45;;;-7.40;99.90;;;;;;5019804;28;20075;-94
2021/12/23 09:20:18;;;;;;;20.52;10.75;;;-7.40;99.90;;;;;;5022541;28;20469;-95
2021/12/23 09:22:45;;;;;;;24.90;14.15;;;-7.30;99.90;;;;;;5019981;28;20022;-94
2021/12/23 09:25:19;;;;;;;20.23;12.43;;;-7.10;99.90;;;;;;5022084;28;20022;-94
2021/12/23 09:33:04;;;;;;;19.02;11.55;;;-6.50;99.90;;;;;;5037468;28;20032;-95
2021/12/23 09:35:32;;;;;;;19.10;10.43;;;-6.40;99.90;;;;;;5018862;28;20555;-94
2021/12/23 09:37:59;;;;;;;25.70;13.40;;;-6.70;99.90;;;;;;5018826;28;20395;-95
2021/12/23 09:40:29;;;;;;;23.85;13.32;;;-6.70;99.90;;;;;;5021343;28;20041;-94
2021/12/23 09:42:58;;;;;;;18.17;11.38;;;-6.60;99.90;;;;;;5021752;28;20025;-95
2021/12/23 09:45:24;;;;;;;22.08;13.98;;;-6.80;99.90;;;;;;5024900;28;20026;-95
2021/12/23 09:47:50;;;;;;;16.75;9.10;;;-6.90;99.90;;;;;;5022153;28;20028;-93
2021/12/23 09:50:21;;;;;;;15.77;9.15;;;-7.20;99.90;;;;;;5019270;28;20033;-94
2021/12/23 09:52:51;;;;;;;16.42;8.95;;;-7.40;99.90;;;;;;5017390;28;20018;-93
2021/12/23 09:55:20;;;;;;;15.00;8.43;;;-7.40;99.90;;;;;;5017739;28;20029;-92
2021/12/23 09:57:48;;;;;;;14.77;8.97;;;-7.60;99.90;;;;;;5017077;28;20431;-92
2021/12/23 10:00:17;;;;;;;19.25;7.63;;;-7.60;99.90;;;;;;5017580;28;20308;-93
2021/12/23 10:02:43;;;;;;;13.07;7.95;;;-7.80;99.90;;;;;;5017314;28;20053;-93
2021/12/23 10:05:13;;;;;;;28.63;17.25;;;-7.60;99.90;;;;;;5016797;28;20072;-94
2021/12/23 10:07:40;;;;;;;17.15;9.40;;;-7.50;99.90;;;;;;5018588;28;20022;-93
2021/12/23 10:10:15;;;;;;;16.30;8.57;;;-7.40;99.90;;;;;;5017308;28;20026;-92
2021/12/23 10:31:48;;;;;;;20.38;9.50;;;-7.30;99.90;;;;;;5038668;28;20026;-94
2021/12/23 10:37:18;;;;;;;13.00;6.28;;;-7.20;99.90;;;;;;5041107;28;20076;-93
2021/12/23 10:39:46;;;;;;;12.23;7.15;;;-7.00;99.90;;;;;;5021001;28;20056;-93
2021/12/23 10:42:16;;;;;;;18.85;8.50;;;-6.80;99.90;;;;;;5020347;28;20057;-95
2021/12/23 10:45:08;;;;;;;20.15;9.23;;;-6.80;99.90;;;;;;5020122;28;20029;-94
2021/12/23 10:47:48;;;;;;;15.07;6.75;;;-7.00;99.90;;;;;;5020776;28;20036;-93
2021/12/23 10:50:29;;;;;;;12.48;7.25;;;-6.90;99.90;;;;;;5019709;28;20057;-93
2021/12/23 10:53:10;;;;;;;20.45;8.18;;;-6.70;99.90;;;;;;5020152;28;20494;-93
2021/12/23 10:58:22;;;;;;;15.07;7.88;;;-7.00;99.90;;;;;;5038010;28;20024;-93
2021/12/23 11:00:52;;;;;;;29.17;13.63;;;-6.90;99.90;;;;;;5020395;28;20026;-94
2021/12/23 11:03:33;;;;;;;19.10;9.98;;;-6.90;99.90;;;;;;5020377;28;20084;-95
2021/12/23 11:43:54;;;;;;;22.55;10.82;;;-6.80;99.10;;;;;;5049026;28;20045;-94
2021/12/23 11:46:33;;;;;;;;;;;-6.70;99.90;;;;;;5026702;28;20109;-95
2021/12/23 11:49:02;;;;;;;17.08;8.32;;;-6.60;99.90;;;;;;5022686;28;19905;-94
2021/12/23 11:51:42;;;;;;;16.13;7.85;;;-6.60;98.80;;;;;;5023146;28;20029;-94
2021/12/23 11:54:12;;;;;;;11.57;6.60;;;-6.80;98.60;;;;;;5023164;28;20021;-94
2021/12/23 11:56:45;;;;;;;16.15;7.70;;;-6.70;99.70;;;;;;5023508;28;20026;-93
2021/12/23 11:59:14;;;;;;;17.45;8.68;;;-6.60;99.90;;;;;;5023334;28;20468;-93
2021/12/23 12:01:46;;;;;;;11.00;6.57;;;-6.60;98.50;;;;;;5024290;28;20030;-93
2021/12/23 12:04:21;;;;;;;11.98;6.63;;;-6.80;98.40;;;;;;5022190;28;20029;-92
2021/12/23 12:06:48;;;;;;;9.93;6.35;;;-6.80;99.30;;;;;;5019393;28;20022;-94
2021/12/23 12:09:22;;;;;;;15.27;8.07;;;-6.70;99.90;;;;;;5018830;28;20044;-92
2021/12/23 12:12:05;;;;;;;14.60;8.85;;;-6.60;99.00;;;;;;5019632;28;20033;-94
2021/12/23 12:14:34;;;;;;;15.95;8.10;;;-6.60;99.20;;;;;;5020494;28;20460;-94
2021/12/23 12:17:25;;;;;;;16.60;7.82;;;-6.60;99.60;;;;;;5020102;28;20028;-93
2021/12/23 12:19:50;;;;;;;14.30;8.30;;;-6.80;97.70;;;;;;5024565;28;20078;-94
2021/12/23 12:22:55;;;;;;;17.70;9.02;;;-6.80;99.00;;;;;;5026377;28;20488;-94
2021/12/23 12:25:23;;;;;;;26.17;11.88;;;-6.90;98.30;;;;;;5018910;28;20057;-95
2021/12/23 12:27:55;;;;;;;20.73;9.48;;;-6.90;98.50;;;;;;5022232;28;20116;-93
2021/12/23 12:30:39;;;;;;;26.60;10.95;;;-6.70;99.20;;;;;;5022716;28;20030;-94
2021/12/23 12:33:08;;;;;;;22.42;11.10;;;-6.80;97.70;;;;;;5020266;28;20413;-93
2021/12/23 12:35:34;;;;;;;32.40;12.93;;;-6.80;98.50;;;;;;5021114;28;20029;-94
2021/12/23 12:39:52;;;;;;;25.85;12.57;;;-6.70;98.90;;;;;;5099090;27;20417;-94
2021/12/23 12:42:31;;;;;;;25.70;11.50;;;-6.70;98.10;;;;;;5096040;28;20036;-94
2021/12/23 12:45:08;;;;;;;21.52;11.48;;;-6.90;97.90;;;;;;5099027;28;20024;-94
2021/12/23 12:47:37;;;;;;;22.15;11.13;;;-6.90;98.50;;;;;;5096343;28;20542;-95
2021/12/23 12:50:11;;;;;;;21.75;9.93;;;-6.90;98.80;;;;;;5094248;28;20044;-96
2021/12/23 12:52:41;;;;;;;19.45;10.02;;;-6.90;99.10;;;;;;5097360;28;20100;-94
2021/12/23 12:55:27;;;;;;;22.07;10.13;;;-7.00;98.60;;;;;;5097675;28;20028;-94
2021/12/23 12:58:01;;;;;;;21.40;10.35;;;-6.90;99.30;;;;;;5098821;28;20292;-94
2021/12/23 13:00:39;;;;;;;39.22;15.57;;;-6.80;98.80;;;;;;5092017;28;20039;-94
2021/12/23 13:03:12;;;;;;;35.83;15.30;;;-6.90;97.90;;;;;;5093536;28;20074;-94
2021/12/23 13:05:42;;;;;;;43.10;16.02;;;-7.00;98.80;;;;;;5095171;28;20079;-95
2021/12/23 13:08:16;;;;;;;37.88;15.55;;;-7.00;98.60;;;;;;5096430;28;20043;-94
2021/12/23 13:10:48;;;;;;;30.58;14.00;;;-7.00;98.30;;;;;;5096143;28;20033;-93
2021/12/23 13:13:33;;;;;;;24.52;12.02;;;-7.10;98.40;;;;;;5093620;28;20024;-93
2021/12/23 13:16:19;;;;;;;22.60;10.95;;;-7.10;98.10;;;;;;5092260;28;20024;-94
2021/12/23 13:18:45;;;;;;;23.85;11.82;;;-7.10;98.80;;;;;;5094453;28;20078;-94
2021/12/23 13:21:18;;;;;;;20.73;10.48;;;-7.20;98.90;;;;;;5091991;28;20020;-93
2021/12/23 13:23:45;;;;;;;21.13;9.52;;;-7.20;98.70;;;;;;5092302;28;20028;-94
2021/12/23 13:26:14;;;;;;;20.45;10.27;;;-7.10;99.40;;;;;;5096620;28;20022;-94
2021/12/23 13:28:50;;;;;;;25.55;12.05;;;-7.20;99.40;;;;;;5092199;28;20029;-94
2021/12/23 13:31:17;;;;;;;25.45;12.50;;;-7.20;98.80;;;;;;5094465;28;20036;-94
2021/12/23 13:33:58;;;;;;;31.88;15.73;;;-7.30;99.00;;;;;;5093682;28;20503;-94
2021/12/23 13:36:28;;;;;;;23.30;11.60;;;-7.40;97.90;;;;;;5094853;28;20038;-95
2021/12/23 13:39:03;;;;;;;25.95;13.15;;;-7.40;99.10;;;;;;5094302;28;20052;-95
2021/12/23 13:41:30;;;;;;;23.48;11.98;;;-7.40;99.20;;;;;;5094778;28;20023;-95
2021/12/23 13:44:17;;;;;;;23.05;11.13;;;-7.40;99.70;;;;;;5092516;28;20032;-93
2021/12/23 13:47:04;;;;;;;44.78;17.40;;;-7.30;99.90;;;;;;5090937;28;20024;-94
2021/12/23 13:49:33;;;;;;;54.78;22.67;;;-7.30;99.80;;;;;;5070793;28;20032;-94
2021/12/23 13:51:59;;;;;;;48.17;21.60;;;-7.30;99.90;;;;;;5078307;28;20025;-94
2021/12/23 13:54:33;;;;;;;56.08;22.80;;;-7.40;99.50;;;;;;5079031;28;20272;-94
2021/12/23 13:56:58;;;;;;;45.08;19.17;;;-7.60;99.20;;;;;;5077919;28;20103;-94
2021/12/23 13:59:29;;;;;;;42.35;18.00;;;-7.50;99.90;;;;;;5078494;28;20063;-94
2021/12/23 14:01:56;;;;;;;61.10;25.38;;;-7.60;99.60;;;;;;5078390;28;20099;-94
2021/12/23 14:04:51;;;;;;;61.28;24.23;;;-7.70;99.90;;;;;;5077516;28;20048;-94
2021/12/23 14:07:51;;;;;;;64.32;23.48;;;-7.70;99.80;;;;;;5083878;28;20545;-96
2021/12/23 14:10:20;;;;;;;103.53;33.85;;;-7.70;99.90;;;;;;5094415;28;20047;-96
2021/12/23 14:44:04;;;;;;;39.45;17.85;;;-8.10;99.90;;;;;;6034488;22;4185141;-96
2021/12/23 14:46:33;;;;;;;39.20;18.73;;;-8.20;99.90;;;;;;6212573;22;20005;-96
2021/12/23 14:51:35;;;;;;;52.90;19.73;;;-8.10;99.90;;;;;;6183231;23;20062;-96
2021/12/23 14:54:13;;;;;;;69.25;23.77;;;-8.20;99.90;;;;;;6214576;22;19997;-95
2021/12/23 14:56:41;;;;;;;54.70;21.98;;;-8.10;99.90;;;;;;6179934;22;20025;-95
2021/12/23 14:59:13;;;;;;;112.82;38.40;;;-8.10;99.90;;;;;;6181413;23;20001;-96
2021/12/23 15:01:41;;;;;;;81.72;32.30;;;-8.00;99.90;;;;;;6180228;22;20431;-96
2021/12/23 15:04:09;;;;;;;77.03;32.20;;;-8.10;99.90;;;;;;6176111;23;20479;-92
2021/12/23 15:07:01;;;;;;;47.92;21.70;;;-8.00;99.90;;;;;;6177022;22;20005;-94
2021/12/23 15:09:29;;;;;;;31.15;14.73;;;-8.00;99.90;;;;;;6179283;22;20001;-95
2021/12/23 15:11:57;;;;;;;35.10;13.45;;;-8.10;99.90;;;;;;6171133;22;20008;-95
2021/12/23 15:14:24;;;;;;;33.88;14.27;;;-8.10;99.90;;;;;;6153028;23;20015;-95
2021/12/23 15:17:11;;;;;;;31.90;12.88;;;-8.10;99.90;;;;;;6155470;23;20001;-95
2021/12/23 15:19:41;;;;;;;33.95;13.85;;;-8.10;99.90;;;;;;6171175;23;20081;-95
2021/12/23 15:22:19;;;;;;;23.58;12.02;;;-8.20;99.90;;;;;;6175915;23;20013;-95
2021/12/23 15:24:45;;;;;;;28.10;13.35;;;-8.20;99.90;;;;;;6171606;23;20064;-94
2021/12/23 15:27:20;;;;;;;25.50;12.75;;;-8.20;99.90;;;;;;6172248;22;20012;-94
2021/12/23 15:29:48;;;;;;;25.38;12.85;;;-8.50;99.90;;;;;;6170510;23;20009;-95
2021/12/23 15:32:25;;;;;;;46.03;18.80;;;-8.50;99.90;;;;;;6172461;23;20005;-95
2021/12/23 15:35:05;;;;;;;68.97;25.25;;;-8.50;99.90;;;;;;6150927;23;20024;-94
2021/12/23 15:37:37;;;;;;;58.20;20.58;;;-8.70;99.90;;;;;;6176127;23;20001;-95
2021/12/23 15:40:08;;;;;;;38.03;16.48;;;-8.70;99.90;;;;;;6172895;22;20035;-93
2021/12/23 15:42:35;;;;;;;54.53;24.98;;;-8.70;99.90;;;;;;6151824;23;20060;-95
2021/12/23 15:45:01;;;;;;;38.30;18.15;;;-8.70;99.90;;;;;;6166965;22;20009;-94
2021/12/23 15:47:27;;;;;;;44.28;21.48;;;-8.90;99.90;;;;;;6162772;23;20005;-94
2021/12/23 15:49:58;;;;;;;47.83;19.80;;;-8.80;99.90;;;;;;6143480;23;19989;-94
2021/12/23 15:52:25;;;;;;;30.30;14.20;;;-8.70;99.90;;;;;;6191143;22;20012;-94
2021/12/23 15:54:52;;;;;;;33.08;15.30;;;-8.80;99.90;;;;;;6164409;23;20008;-95
2021/12/23 15:57:18;;;;;;;40.83;15.63;;;-8.80;99.90;;;;;;6164310;22;20001;-96
2021/12/23 15:59:51;;;;;;;34.83;15.82;;;-8.80;99.90;;;;;;6163007;23;20001;-92
2021/12/23 16:02:19;;;;;;;29.23;12.75;;;-8.70;99.90;;;;;;6162692;23;20005;-95
2021/12/23 16:04:57;;;;;;;33.00;15.05;;;-8.70;99.90;;;;;;6161797;23;20012;-95
2021/12/23 16:07:26;;;;;;;32.85;15.05;;;-8.70;99.90;;;;;;6164088;22;20001;-93
2021/12/23 16:09:54;;;;;;;24.30;12.40;;;-8.60;99.90;;;;;;6160998;23;20009;-92
2021/12/23 16:12:28;;;;;;;29.98;14.15;;;-8.70;99.90;;;;;;6164450;23;20028;-95
2021/12/23 16:14:56;;;;;;;40.45;16.38;;;-8.70;99.90;;;;;;6162521;22;20084;-96
2021/12/23 16:17:23;;;;;;;33.72;15.20;;;-8.70;99.90;;;;;;6162372;22;20005;-96
2021/12/23 16:19:50;;;;;;;40.97;17.40;;;-8.60;99.90;;;;;;6163357;23;20009;-95
2021/12/23 16:22:16;;;;;;;40.00;17.20;;;-8.80;99.90;;;;;;6164583;23;20001;-96
2021/12/23 16:24:42;;;;;;;35.53;14.93;;;-8.70;99.90;;;;;;6165710;23;20009;-95
2021/12/23 16:27:10;;;;;;;32.17;14.80;;;-8.70;99.90;;;;;;6164362;22;20447;-95
2021/12/23 16:30:10;;;;;;;39.85;19.50;;;-8.80;99.90;;;;;;6176204;23;20030;-94
2021/12/23 16:33:15;;;;;;;36.47;17.58;;;-8.80;99.90;;;;;;6167051;23;20005;-95
2021/12/23 16:35:43;;;;;;;53.83;20.58;;;-8.70;99.90;;;;;;6116689;23;20001;-96
2021/12/23 16:38:12;;;;;;;67.43;23.13;;;-8.60;99.90;;;;;;6161992;23;20328;-95
2021/12/23 16:40:44;;;;;;;51.70;18.75;;;-8.60;99.90;;;;;;6164224;23;20012;-95
2021/12/23 16:43:11;;;;;;;49.47;20.70;;;-8.60;99.90;;;;;;6160131;23;20021;-94
2021/12/23 16:45:38;;;;;;;45.50;18.90;;;-8.60;99.90;;;;;;6159320;23;20009;-94
2021/12/23 16:48:04;;;;;;;42.55;19.98;;;-8.70;99.90;;;;;;6160943;22;20050;-94
2021/12/23 16:50:31;;;;;;;43.03;19.48;;;-8.70;99.90;;;;;;6162553;22;20420;-95
2021/12/23 16:52:58;;;;;;;41.78;18.85;;;-8.80;99.90;;;;;;6160823;22;20009;-94
2021/12/23 16:55:43;;;;;;;33.88;16.38;;;-8.70;99.90;;;;;;6159877;22;20002;-94
2021/12/23 16:58:17;;;;;;;36.60;16.55;;;-8.70;99.90;;;;;;6161874;23;20009;-94
2021/12/23 17:00:45;;;;;;;26.50;13.30;;;-8.80;99.90;;;;;;6161466;22;20031;-94
2021/12/23 17:03:11;;;;;;;37.58;17.70;;;-8.80;99.90;;;;;;6162144;22;20013;-94
2021/12/23 17:05:39;;;;;;;39.85;20.17;;;-8.80;99.90;;;;;;6162607;23;20005;-94
2021/12/23 17:08:05;;;;;;;98.97;39.08;;;-9.00;99.90;;;;;;6161514;23;20092;-94
2021/12/23 17:10:31;;;;;;;92.65;34.88;;;-9.00;99.90;;;;;;6159625;23;20005;-94
2021/12/23 17:13:00;;;;;;;237.07;77.18;;;-9.00;99.90;;;;;;6159630;23;20005;-93
2021/12/23 17:15:26;;;;;;;209.90;69.53;;;-8.90;99.90;;;;;;6158136;22;19998;-94
2021/12/23 17:18:03;;;;;;;131.52;47.40;;;-8.90;99.90;;;;;;6159637;23;20001;-94
2021/12/23 17:23:05;;;;;;;77.90;30.70;;;-8.80;99.90;;;;;;6194481;23;20043;-94
2021/12/23 17:25:31;;;;;;;79.88;31.58;;;-8.80;99.90;;;;;;6160100;23;20005;-93
2021/12/23 17:27:58;;;;;;;70.68;27.55;;;-8.80;99.90;;;;;;6159744;23;20005;-94
2021/12/23 17:30:25;;;;;;;57.35;23.08;;;-8.80;99.90;;;;;;6159981;22;20001;-94
2021/12/23 17:32:53;;;;;;;54.40;25.98;;;-8.90;99.90;;;;;;6159405;23;20012;-93
2021/12/23 17:35:21;;;;;;;51.17;22.25;;;-8.90;99.90;;;;;;6159191;23;20005;-93
2021/12/23 17:37:47;;;;;;;49.78;21.83;;;-9.00;99.90;;;;;;6159776;22;20001;-95
2021/12/23 17:40:13;;;;;;;50.08;22.10;;;-9.00;99.90;;;;;;6160945;23;20001;-94
2021/12/23 17:42:39;;;;;;;63.92;28.13;;;-8.90;99.90;;;;;;6158389;23;20173;-94
2021/12/23 17:45:06;;;;;;;68.50;28.88;;;-9.00;99.90;;;;;;6158924;23;20035;-94
2021/12/23 17:47:31;;;;;;;71.60;31.15;;;-9.00;99.90;;;;;;6159256;23;20416;-93
2021/12/23 17:49:58;;;;;;;68.80;29.13;;;-9.00;99.90;;;;;;6159073;22;20062;-94
2021/12/23 17:52:24;;;;;;;61.42;26.33;;;-9.00;99.90;;;;;;6157836;22;20019;-93
2021/12/23 17:54:54;;;;;;;67.38;28.52;;;-9.10;99.90;;;;;;6158456;23;20084;-94
2021/12/23 17:57:20;;;;;;;90.18;32.85;;;-9.00;99.90;;;;;;6159220;23;20001;-92
2021/12/23 17:59:46;;;;;;;78.30;29.45;;;-9.30;99.90;;;;;;6160235;22;20048;-94
2021/12/23 18:02:12;;;;;;;80.72;31.33;;;-9.30;99.90;;;;;;6159027;23;20005;-95
2021/12/23 18:04:37;;;;;;;63.25;28.35;;;-9.40;99.90;;;;;;6160287;22;20005;-94
2021/12/23 18:07:03;;;;;;;60.22;25.85;;;-9.30;99.90;;;;;;6159269;23;20005;-93
2021/12/23 18:09:29;;;;;;;80.15;32.95;;;-9.30;99.90;;;;;;6159209;22;20012;-94
2021/12/23 18:11:55;;;;;;;85.15;34.35;;;-9.50;99.90;;;;;;6158478;23;20054;-95
2021/12/23 18:14:21;;;;;;;74.43;31.10;;;-9.70;99.90;;;;;;6158331;23;20305;-95
2021/12/23 18:16:47;;;;;;;61.80;26.67;;;-9.70;99.90;;;;;;6157788;23;20353;-93
2021/12/23 18:19:13;;;;;;;64.05;29.35;;;-9.70;99.90;;;;;;6159406;23;20332;-95
2021/12/23 18:21:39;;;;;;;68.25;29.35;;;-9.60;99.90;;;;;;6157483;23;20377;-94
2021/12/23 18:24:05;;;;;;;67.00;28.08;;;-7.30;99.90;;;;;;6157655;22;20005;-94
2021/12/23 18:26:31;;;;;;;57.70;26.20;;;-9.50;99.90;;;;;;6159154;23;20451;-94
2021/12/23 18:28:59;;;;;;;64.78;28.25;;;-9.50;99.90;;;;;;6158501;23;20076;-95
2021/12/23 18:31:30;;;;;;;55.95;25.45;;;-9.40;99.90;;;;;;6158721;23;20012;-94
2021/12/23 18:33:56;;;;;;;66.55;30.02;;;-9.30;99.90;;;;;;6157643;23;20001;-94
2021/12/23 18:36:32;;;;;;;61.05;27.50;;;-9.30;99.90;;;;;;6158060;23;20088;-94
2021/12/23 18:39:00;;;;;;;53.13;25.50;;;-9.30;99.90;;;;;;6159588;22;20004;-94
2021/12/23 18:41:32;;;;;;;57.00;26.90;;;-9.30;99.90;;;;;;6158060;23;20070;-93
2021/12/23 18:44:01;;;;;;;58.15;27.15;;;-9.30;99.90;;;;;;6160728;23;20393;-95
2021/12/23 18:46:28;;;;;;;54.20;27.30;;;-9.30;99.90;;;;;;6158574;23;20092;-93
2021/12/23 18:48:55;;;;;;;40.90;20.83;;;-7.20;99.90;;;;;;6160010;23;20005;-95
2021/12/23 18:51:24;;;;;;;48.25;20.92;;;-9.40;99.90;;;;;;6159515;23;20010;-94
2021/12/23 18:53:50;;;;;;;49.78;24.83;;;-9.40;99.90;;;;;;6158218;23;20005;-94
2021/12/23 18:56:16;;;;;;;54.38;26.70;;;-9.30;99.90;;;;;;6160655;23;20032;-94
2021/12/23 18:58:42;;;;;;;42.20;21.63;;;-9.30;99.90;;;;;;6159051;23;20001;-94
2021/12/23 19:01:13;;;;;;;48.03;24.52;;;-9.40;99.90;;;;;;6156964;23;20032;-94
2021/12/23 19:04:08;;;;;;;51.13;23.13;;;-9.40;99.90;;;;;;6158288;23;20065;-94
2021/12/23 19:06:27;;;;;;;54.55;25.95;;;-9.50;99.90;;;;;;6184199;23;20001;-94
2021/12/23 19:08:55;;;;;;;45.50;22.88;;;-9.40;99.90;;;;;;6157080;23;20001;-94
2021/12/23 19:11:30;;;;;;;39.33;20.98;;;-9.50;99.90;;;;;;6158677;23;20009;-95
2021/12/23 19:14:00;;;;;;;52.25;23.73;;;-9.50;99.90;;;;;;6157106;23;20001;-94
2021/12/23 19:16:26;;;;;;;53.83;24.67;;;-9.50;99.90;;;;;;6158177;23;20020;-93
2021/12/23 19:18:52;;;;;;;51.05;23.45;;;-9.60;99.90;;;;;;6133368;23;20069;-94
2021/12/23 19:21:18;;;;;;;63.78;25.13;;;-9.50;99.90;;;;;;6158357;23;20084;-94
2021/12/23 19:23:45;;;;;;;50.50;22.75;;;-9.40;99.90;;;;;;6158842;23;20084;-94
2021/12/23 19:26:12;;;;;;;48.45;21.98;;;-9.40;99.90;;;;;;6158193;23;20005;-94
2021/12/23 19:28:39;;;;;;;58.75;25.92;;;-9.60;99.90;;;;;;6158824;23;20001;-94
2021/12/23 19:31:05;;;;;;;51.03;22.70;;;-9.70;99.90;;;;;;6159073;23;20001;-94
2021/12/23 19:33:32;;;;;;;54.80;26.50;;;-9.80;99.90;;;;;;6158202;23;19998;-94
2021/12/23 19:35:58;;;;;;;42.70;20.23;;;-9.90;99.90;;;;;;6158317;23;20001;-93
2021/12/23 19:38:25;;;;;;;63.35;27.42;;;-10.00;99.90;;;;;;6157719;23;20012;-94
2021/12/23 19:40:52;;;;;;;73.30;32.97;;;-9.90;99.90;;;;;;6158070;23;20028;-93
2021/12/23 19:43:18;;;;;;;60.55;27.73;;;-9.90;99.90;;;;;;6158584;22;20021;-93
2021/12/23 19:45:44;;;;;;;55.47;25.67;;;-9.90;99.90;;;;;;6158660;23;20309;-93
2021/12/23 19:48:11;;;;;;;52.17;23.27;;;-9.90;99.90;;;;;;6157708;23;20467;-93
2021/12/23 19:50:40;;;;;;;42.65;17.45;;;-9.90;99.90;;;;;;6157946;23;20009;-93
2021/12/23 19:53:06;;;;;;;45.08;19.40;;;-9.90;99.90;;;;;;6157038;23;20009;-93
2021/12/23 19:55:32;;;;;;;58.97;23.58;;;-9.80;99.90;;;;;;6157219;23;20084;-93
2021/12/23 19:57:58;;;;;;;55.60;22.52;;;-9.80;99.90;;;;;;6157093;23;20454;-93
2021/12/23 20:00:28;;;;;;;52.40;21.30;;;-10.00;99.90;;;;;;6157698;23;20005;-93